Time;durP1;ratioP1;P1;durP2;ratioP2;P2;SDS_P1;SDS_P2;PMS_P1;PMS_P2;Temp;Humidity;BMP_temperature;BMP_pressure;BME280_temperature;BME280_humidity;BME280_pressure;Samples;Min_cycle;Max_cycle;Signal;HPM_P1;HPM_P2
2022/12/01 00:01:19;;;;;;;54.17;28.57;;;;;;;-0.14;92.89;101846.45;1736026;82;21103;-74
2022/12/01 00:03:46;;;;;;;57.07;30.77;;;;;;;-0.13;93.01;101849.09;1723429;82;21405;-74
2022/12/01 00:06:17;;;;;;;53.23;27.13;;;;;;;-0.11;93.02;101853.88;1727685;82;21027;-74
2022/12/01 00:11:34;;;;;;;53.80;28.87;;;;;;;-0.08;92.94;101846.23;1739907;82;21461;-77
2022/12/01 00:14:02;;;;;;;52.00;27.50;;;;;;;-0.06;93.00;101843.69;1726124;82;21107;-74
2022/12/01 00:16:29;;;;;;;53.27;28.33;;;;;;;-0.05;93.09;101848.91;1733424;82;21553;-74
2022/12/01 00:18:57;;;;;;;51.93;26.87;;;;;;;-0.02;93.12;101842.97;1734156;82;21008;-77
2022/12/01 00:21:25;;;;;;;54.70;29.27;;;;;;;0.00;93.16;101845.19;1725409;82;20996;-73
2022/12/01 00:23:56;;;;;;;54.57;29.10;;;;;;;-0.02;92.94;101839.97;1740136;82;21011;-74
2022/12/01 00:26:24;;;;;;;;;;;;;;;-0.01;92.89;101845.98;1742585;82;21125;-73
2022/12/01 00:28:54;;;;;;;55.73;28.63;;;;;;;-0.01;92.91;101847.28;1719207;81;20182;-75
2022/12/01 00:31:21;;;;;;;;;;;;;;;-0.01;92.84;101845.98;1742504;82;20976;-73
2022/12/01 00:33:49;;;;;;;51.40;27.37;;;;;;;-0.04;92.79;101847.20;1740289;82;20165;-73
2022/12/01 00:36:16;;;;;;;53.57;28.43;;;;;;;-0.03;92.90;101845.06;1740191;82;21565;-73
2022/12/01 00:38:44;;;;;;;55.53;28.70;;;;;;;-0.03;92.89;101848.93;1740419;82;21866;-73
2022/12/01 00:41:12;;;;;;;51.43;28.60;;;;;;;-0.01;92.89;101847.28;1729748;82;21031;-73
2022/12/01 00:43:39;;;;;;;52.00;27.93;;;;;;;-0.02;92.81;101841.26;1740254;82;21514;-73
2022/12/01 00:46:07;;;;;;;59.80;29.03;;;;;;;-0.01;92.83;101842.12;1740070;82;21243;-74
2022/12/01 00:48:34;;;;;;;54.17;27.00;;;;;;;0.00;92.84;101842.61;1740366;82;21260;-74
2022/12/01 00:51:02;;;;;;;56.43;29.30;;;;;;;0.01;92.79;101840.89;1737028;81;21111;-73
2022/12/01 00:53:29;;;;;;;53.03;28.47;;;;;;;0.01;92.71;101844.34;1722974;82;20945;-73
2022/12/01 00:55:56;;;;;;;50.73;27.73;;;;;;;-0.02;92.61;101841.67;1753154;81;21007;-74
2022/12/01 00:58:24;;;;;;;54.33;28.50;;;;;;;-0.01;92.78;101842.12;1756931;81;21055;-74
2022/12/01 01:01:02;;;;;;;51.93;27.77;;;;;;;0.02;92.72;101843.92;1756837;81;21027;-73
2022/12/01 01:03:30;;;;;;;51.67;26.30;;;;;;;-0.02;92.55;101841.26;1756774;81;21145;-73
2022/12/01 01:06:10;;;;;;;49.57;26.97;;;;;;;-0.01;92.67;101839.55;1757022;81;21048;-73
2022/12/01 01:08:38;;;;;;;51.70;28.32;;;;;;;0.02;92.81;101839.63;1756934;81;21019;-74
2022/12/01 01:11:08;;;;;;;53.37;28.07;;;;;;;0.02;92.60;101838.77;1757082;81;20969;-74
2022/12/01 01:13:36;;;;;;;47.60;26.53;;;;;;;-0.05;92.49;101839.88;1756849;81;21516;-74
2022/12/01 01:16:11;;;;;;;50.83;28.27;;;;;;;-0.04;92.58;101838.17;1757027;81;21170;-77
2022/12/01 01:18:38;;;;;;;47.13;26.57;;;;;;;-0.05;92.62;101837.73;1756351;81;21518;-74
2022/12/01 01:21:10;;;;;;;51.13;26.87;;;;;;;-0.07;92.45;101832.93;1757473;81;21086;-74
2022/12/01 01:23:37;;;;;;;52.93;27.53;;;;;;;-0.07;92.52;101836.38;1757152;81;21020;-74
2022/12/01 01:26:09;;;;;;;48.83;26.80;;;;;;;-0.07;92.50;101834.22;1733530;81;21082;-77
2022/12/01 01:28:36;;;;;;;46.10;26.43;;;;;;;-0.09;92.49;101829.42;1735803;81;21138;-75
2022/12/01 01:31:08;;;;;;;49.67;26.97;;;;;;;-0.09;92.51;101828.14;1756783;81;21063;-74
2022/12/01 01:33:36;;;;;;;49.07;27.13;;;;;;;-0.12;92.38;101829.34;1756877;81;21454;-74
2022/12/01 01:36:05;;;;;;;53.47;27.37;;;;;;;-0.15;92.33;101821.52;1756811;81;21027;-74
2022/12/01 01:38:33;;;;;;;51.27;26.93;;;;;;;-0.18;92.34;101819.72;1757178;81;20976;-74
2022/12/01 01:41:01;;;;;;;50.37;27.07;;;;;;;-0.20;92.23;101829.10;1756582;81;21141;-74
2022/12/01 01:43:51;;;;;;;50.53;26.37;;;;;;;-0.25;92.25;101822.94;1756845;81;21015;-74
2022/12/01 01:46:28;;;;;;;52.15;28.15;;;;;;;-0.28;92.27;101823.75;1756726;81;21078;-74
2022/12/01 01:49:17;;;;;;;47.87;26.90;;;;;;;-0.28;92.46;101816.41;1757023;81;21001;-74
2022/12/01 01:51:51;;;;;;;53.83;27.87;;;;;;;-0.27;92.60;101811.31;1756601;81;21273;-74
2022/12/01 01:54:23;;;;;;;49.30;26.80;;;;;;;-0.26;92.58;101804.45;1756607;81;21088;-74
2022/12/01 01:56:52;;;;;;;51.33;27.60;;;;;;;-0.25;92.71;101802.32;1736975;82;21027;-74
2022/12/01 01:59:24;;;;;;;49.07;27.67;;;;;;;-0.21;92.86;101809.75;1716448;82;21449;-74
2022/12/01 02:02:07;;;;;;;48.80;26.97;;;;;;;-0.23;92.62;101807.98;1737092;82;21023;-76
2022/12/01 02:04:37;;;;;;;49.63;27.00;;;;;;;-0.20;92.78;101810.20;1737069;82;21027;-74
2022/12/01 02:07:05;;;;;;;;;;;;;;;-0.21;92.66;101807.17;1727785;82;21098;-74
2022/12/01 02:09:32;;;;;;;50.40;27.10;;;;;;;-0.18;92.78;101802.97;1728216;81;20146;-76
2022/12/01 02:12:16;;;;;;;51.50;28.40;;;;;;;-0.18;92.60;101804.27;1717669;82;21043;-74
2022/12/01 02:15:07;;;;;;;48.63;25.40;;;;;;;-0.19;92.50;101802.91;1631216;86;21012;-74
2022/12/01 02:17:54;;;;;;;49.15;26.93;;;;;;;-0.23;92.53;101797.67;1676389;84;21082;-74
2022/12/01 02:20:45;;;;;;;56.00;28.70;;;;;;;-0.21;92.54;101804.59;1667282;84;21370;-74
2022/12/01 02:23:55;;;;;;;51.92;27.42;;;;;;;-0.20;92.59;101803.75;1690464;84;20992;-74
2022/12/01 02:26:43;;;;;;;46.05;25.77;;;;;;;-0.21;92.62;101804.17;1690235;84;21094;-74
2022/12/01 02:29:40;;;;;;;51.03;27.00;;;;;;;-0.19;92.62;101801.62;1690096;84;21125;-73
2022/12/01 02:32:39;;;;;;;49.70;26.40;;;;;;;-0.18;92.64;101805.97;1690396;84;21297;-74
2022/12/01 02:35:14;;;;;;;56.77;27.87;;;;;;;-0.19;92.59;101803.81;1690213;84;21164;-75
2022/12/01 02:37:53;;;;;;;48.33;27.67;;;;;;;-0.18;92.70;101803.39;1690322;84;21215;-74
2022/12/01 02:40:54;;;;;;;49.00;25.87;;;;;;;-0.16;92.63;101803.03;1675344;84;21101;-74
2022/12/01 02:43:41;;;;;;;50.17;27.63;;;;;;;-0.18;92.50;101805.55;1694877;84;21171;-75
2022/12/01 02:46:19;;;;;;;48.67;25.73;;;;;;;-0.21;92.33;101799.44;1697021;84;21698;-74
2022/12/01 02:48:50;;;;;;;47.20;25.17;;;;;;;-0.21;92.40;101796.45;1697168;84;21108;-76
2022/12/01 02:51:30;;;;;;;46.27;25.73;;;;;;;-0.22;92.37;101793.42;1700416;82;21051;-75
2022/12/01 02:54:04;;;;;;;45.30;25.90;;;;;;;-0.24;92.30;101798.52;1727070;82;21029;-74
2022/12/01 02:56:31;;;;;;;45.87;25.10;;;;;;;-0.20;92.45;101799.89;1730498;82;22217;-74
2022/12/01 02:58:58;;;;;;;45.73;24.57;;;;;;;-0.18;92.44;101796.53;1738111;82;21063;-74
2022/12/01 03:01:59;;;;;;;44.87;25.13;;;;;;;-0.14;92.42;101799.67;1738964;82;21131;-74
2022/12/01 03:04:38;;;;;;;43.27;25.37;;;;;;;-0.13;92.30;101797.97;1710245;82;21033;-74
2022/12/01 03:07:18;;;;;;;41.10;24.77;;;;;;;-0.12;92.37;101791.55;1710433;82;21029;-74
2022/12/01 03:09:58;;;;;;;;;;;;;;;-0.11;92.33;101790.73;1741851;82;20995;-74
2022/12/01 03:13:07;;;;;;;42.87;23.27;;;;;;;-0.08;92.35;101793.41;1735261;82;20480;-74
2022/12/01 03:15:57;;;;;;;42.17;23.33;;;;;;;-0.06;92.42;101794.30;1722657;82;21140;-77
2022/12/01 03:18:44;;;;;;;45.52;24.87;;;;;;;-0.06;92.39;101789.14;1729623;82;21047;-76
2022/12/01 03:21:20;;;;;;;44.83;24.37;;;;;;;-0.03;92.52;101788.36;1737642;82;21066;-74
2022/12/01 03:24:01;;;;;;;41.10;23.83;;;;;;;-0.01;92.43;101789.28;1738072;82;20999;-74
2022/12/01 03:26:31;;;;;;;48.63;24.53;;;;;;;0.01;92.49;101785.47;1737309;82;21045;-74
2022/12/01 03:29:04;;;;;;;43.78;24.20;;;;;;;0.04;92.44;101786.42;1737939;82;21205;-76
2022/12/01 03:31:36;;;;;;;42.00;24.53;;;;;;;0.04;92.27;101791.58;1738006;82;21038;-75
2022/12/01 03:34:14;;;;;;;41.87;23.20;;;;;;;0.07;92.40;101792.95;1737989;82;21039;-73
2022/12/01 03:36:50;;;;;;;44.30;24.97;;;;;;;0.07;92.21;101785.64;1723167;82;21005;-76
2022/12/01 03:39:22;;;;;;;41.87;23.87;;;;;;;0.07;92.09;101789.09;1732305;82;21030;-74
2022/12/01 03:42:03;;;;;;;48.00;24.83;;;;;;;0.07;92.18;101790.80;1737633;82;21118;-74
2022/12/01 03:44:45;;;;;;;43.87;24.13;;;;;;;0.08;92.07;101796.40;1735729;82;21598;-74
2022/12/01 03:47:30;;;;;;;44.90;24.50;;;;;;;0.06;92.12;101791.22;1730086;82;21007;-74
2022/12/01 03:49:59;;;;;;;46.33;25.23;;;;;;;0.06;92.18;101791.22;1737147;82;20954;-74
2022/12/01 03:52:50;;;;;;;45.50;25.17;;;;;;;0.07;92.13;101791.66;1733247;82;21111;-74
2022/12/01 03:55:25;;;;;;;40.00;23.42;;;;;;;0.07;92.05;101792.09;1734901;82;21940;-75
2022/12/01 03:58:12;;;;;;;44.37;24.73;;;;;;;0.06;92.02;101788.64;1737648;82;21014;-74
2022/12/01 04:00:40;;;;;;;39.03;22.47;;;;;;;0.06;92.00;101795.08;1730120;82;21507;-74
2022/12/01 04:03:07;;;;;;;39.53;21.37;;;;;;;0.05;91.83;101792.03;1704423;82;21016;-73
2022/12/01 04:05:34;;;;;;;40.43;23.03;;;;;;;0.07;91.97;101793.37;1732510;82;21101;-76
2022/12/01 04:08:01;;;;;;;36.57;21.17;;;;;;;0.07;91.97;101794.24;1710353;82;21111;-76
2022/12/01 04:10:28;;;;;;;39.47;22.23;;;;;;;0.07;91.77;101795.95;1718802;82;21037;-74
2022/12/01 04:12:58;;;;;;;35.87;21.83;;;;;;;0.09;91.94;101793.02;1710369;82;21001;-74
2022/12/01 04:15:26;;;;;;;43.50;22.60;;;;;;;0.11;92.06;101789.65;1710094;82;21550;-74
2022/12/01 04:17:53;;;;;;;37.10;21.33;;;;;;;0.15;92.23;101791.47;1710283;82;21582;-77
2022/12/01 04:20:21;;;;;;;38.60;21.73;;;;;;;0.18;92.04;101786.81;1710076;82;21959;-74
2022/12/01 04:22:48;;;;;;;40.07;22.27;;;;;;;0.20;92.00;101794.18;1710182;82;21025;-75
2022/12/01 04:25:15;;;;;;;41.00;21.83;;;;;;;0.21;91.85;101790.34;1710032;82;21021;-74
2022/12/01 04:27:42;;;;;;;36.50;22.03;;;;;;;0.21;91.71;101791.62;1715984;82;21277;-78
2022/12/01 04:30:11;;;;;;;40.10;23.53;;;;;;;0.22;91.80;101787.34;1737637;82;21081;-74
2022/12/01 04:32:40;;;;;;;33.57;20.70;;;;;;;0.24;91.85;101784.39;1738316;82;21585;-75
2022/12/01 04:35:10;;;;;;;39.50;22.03;;;;;;;0.26;91.86;101781.88;1731758;82;21032;-74
2022/12/01 04:37:38;;;;;;;35.00;20.72;;;;;;;0.30;91.84;101791.42;1735316;82;27248;-76
2022/12/01 04:40:07;;;;;;;36.87;21.77;;;;;;;0.34;91.93;101789.41;1738919;82;21539;-74
2022/12/01 04:42:34;;;;;;;37.30;20.90;;;;;;;0.36;91.98;101787.33;1737638;82;21045;-76
2022/12/01 04:45:01;;;;;;;36.97;21.47;;;;;;;0.39;91.88;101792.56;1732909;82;21922;-74
2022/12/01 04:47:28;;;;;;;38.43;21.77;;;;;;;0.41;91.87;101790.00;1732301;82;21026;-74
2022/12/01 04:49:55;;;;;;;39.33;21.83;;;;;;;0.45;91.87;101789.27;1735042;82;21014;-74
2022/12/01 04:52:22;;;;;;;40.33;21.63;;;;;;;0.48;91.79;101788.48;1733489;82;21068;-75
2022/12/01 04:54:49;;;;;;;39.27;22.83;;;;;;;0.52;91.84;101790.30;1722859;82;21503;-75
2022/12/01 04:57:16;;;;;;;36.87;22.07;;;;;;;0.52;91.79;101793.74;1726771;82;21134;-74
2022/12/01 04:59:43;;;;;;;39.37;22.03;;;;;;;0.54;91.86;101788.22;1737524;82;20995;-75
2022/12/01 05:02:10;;;;;;;36.33;21.17;;;;;;;0.58;91.89;101796.90;1737714;82;21030;-74
2022/12/01 05:04:40;;;;;;;36.47;21.50;;;;;;;0.61;91.93;101799.16;1737704;82;21043;-74
2022/12/01 05:07:06;;;;;;;40.70;22.40;;;;;;;0.62;91.79;101794.88;1737668;82;21049;-74
2022/12/01 05:09:33;;;;;;;38.43;22.80;;;;;;;0.62;91.71;101794.45;1725766;82;21065;-74
2022/12/01 05:12:01;;;;;;;40.27;23.03;;;;;;;0.63;91.53;101792.73;1710705;82;21023;-74
2022/12/01 05:14:28;;;;;;;44.13;24.30;;;;;;;0.61;91.47;101794.39;1728277;82;21034;-74
2022/12/01 05:16:56;;;;;;;43.07;24.23;;;;;;;0.59;91.45;101794.38;1737869;82;21444;-75
2022/12/01 05:22:09;;;;;;;48.27;25.37;;;;;;;0.58;91.43;101794.31;1737841;82;21142;-75
2022/12/01 05:24:36;;;;;;;46.00;26.67;;;;;;;0.56;91.37;101790.42;1738000;82;21437;-74
2022/12/01 05:27:03;;;;;;;46.73;25.70;;;;;;;0.53;91.23;101788.19;1737796;82;21038;-75
2022/12/01 05:29:31;;;;;;;46.10;26.57;;;;;;;0.51;91.35;101799.75;1738096;82;21062;-75
2022/12/01 05:31:58;;;;;;;45.30;25.73;;;;;;;0.49;91.37;101791.51;1737915;82;21504;-75
2022/12/01 05:34:25;;;;;;;47.57;26.27;;;;;;;0.47;91.48;101795.32;1739576;82;21076;-74
2022/12/01 05:36:52;;;;;;;47.53;27.03;;;;;;;0.49;91.61;101798.82;1737837;82;21508;-77
2022/12/01 05:39:19;;;;;;;46.37;27.73;;;;;;;0.51;91.67;101798.88;1727384;82;21092;-74
2022/12/01 05:41:46;;;;;;;48.23;27.10;;;;;;;0.54;91.71;101802.83;1731844;82;21510;-78
2022/12/01 05:44:13;;;;;;;51.87;27.63;;;;;;;0.55;91.76;101808.43;1733777;82;21003;-75
2022/12/01 05:46:41;;;;;;;52.10;28.40;;;;;;;0.55;91.58;101806.72;1734533;82;21132;-77
2022/12/01 05:49:08;;;;;;;54.10;29.70;;;;;;;0.54;91.62;101804.98;1732411;82;21077;-75
2022/12/01 05:51:35;;;;;;;53.27;29.33;;;;;;;0.56;91.64;101802.45;1733272;82;21012;-74
2022/12/01 05:54:03;;;;;;;52.13;29.77;;;;;;;0.56;91.59;101799.45;1723017;82;20994;-77
2022/12/01 05:56:29;;;;;;;51.43;28.53;;;;;;;0.55;91.47;101808.43;1732611;81;21541;-77
2022/12/01 05:58:58;;;;;;;54.27;28.97;;;;;;;0.54;91.52;101807.56;1737707;82;21123;-75
2022/12/01 06:01:25;;;;;;;51.90;28.03;;;;;;;0.56;91.65;101808.91;1737646;82;21011;-75
2022/12/01 06:03:53;;;;;;;48.97;27.80;;;;;;;0.56;91.69;101807.20;1737740;82;21004;-78
2022/12/01 06:06:21;;;;;;;48.67;28.37;;;;;;;0.55;91.73;101796.82;1734763;82;21006;-78
2022/12/01 06:08:48;;;;;;;51.13;28.33;;;;;;;0.55;91.61;101809.30;1734818;82;21274;-77
2022/12/01 06:11:15;;;;;;;44.93;26.30;;;;;;;0.55;91.61;101809.72;1736605;82;21280;-77
2022/12/01 06:13:42;;;;;;;48.80;28.00;;;;;;;0.53;91.57;101810.13;1735789;82;21493;-77
2022/12/01 06:16:09;;;;;;;52.10;28.70;;;;;;;0.53;91.67;101809.70;1733249;82;21019;-78
2022/12/01 06:18:37;;;;;;;48.97;28.70;;;;;;;0.53;91.62;101815.28;1735832;82;20943;-77
2022/12/01 06:21:06;;;;;;;53.83;29.83;;;;;;;0.51;91.57;101813.94;1733851;82;21035;-74
2022/12/01 06:23:33;;;;;;;61.27;32.63;;;;;;;0.53;91.69;101816.57;1733144;82;21134;-74
2022/12/01 06:26:01;;;;;;;61.43;30.47;;;;;;;0.53;91.70;101816.15;1736386;82;21262;-76
2022/12/01 06:28:28;;;;;;;55.67;30.23;;;;;;;0.53;91.68;101823.02;1735718;82;22089;-74
2022/12/01 06:30:55;;;;;;;53.23;29.27;;;;;;;0.54;91.68;101819.17;1735316;82;21097;-73
2022/12/01 06:33:22;;;;;;;54.73;29.30;;;;;;;0.51;91.61;101815.23;1736247;82;21091;-80
2022/12/01 06:35:51;;;;;;;54.10;29.07;;;;;;;0.51;91.62;101820.80;1737548;82;21179;-77
2022/12/01 06:38:17;;;;;;;51.43;29.40;;;;;;;0.51;91.73;101822.09;1741735;82;21004;-74
2022/12/01 06:40:44;;;;;;;54.90;29.43;;;;;;;0.53;91.87;101825.59;1736018;82;21090;-74
2022/12/01 06:43:11;;;;;;;54.20;30.50;;;;;;;0.53;91.76;101824.31;1733004;82;21082;-79
2022/12/01 06:45:38;;;;;;;54.10;30.07;;;;;;;0.54;91.80;101826.05;1733647;81;22130;-77
2022/12/01 06:48:05;;;;;;;52.53;28.60;;;;;;;0.54;91.77;101832.08;1733927;82;21139;-79
2022/12/01 06:50:32;;;;;;;55.13;29.53;;;;;;;0.55;91.84;101829.94;1734515;82;21038;-77
2022/12/01 06:52:59;;;;;;;63.80;31.10;;;;;;;0.58;91.92;101827.47;1735294;82;21035;-78
2022/12/01 06:55:26;;;;;;;58.23;31.17;;;;;;;0.57;91.82;101825.70;1736485;82;21023;-79
2022/12/01 06:57:53;;;;;;;53.77;30.13;;;;;;;0.57;91.87;101825.70;1738765;81;21015;-78
2022/12/01 07:00:21;;;;;;;62.20;33.37;;;;;;;0.60;91.93;101826.20;1732953;81;21500;-77
2022/12/01 07:02:48;;;;;;;60.80;31.83;;;;;;;0.60;91.94;101821.05;1736307;82;21544;-75
2022/12/01 07:05:15;;;;;;;54.43;29.30;;;;;;;0.61;91.91;101830.52;1733069;82;21028;-83
2022/12/01 07:07:43;;;;;;;52.93;30.10;;;;;;;0.61;91.94;101830.52;1737090;82;21030;-78
2022/12/01 07:10:11;;;;;;;52.10;30.10;;;;;;;0.64;92.08;101831.50;1731598;82;21011;-76
2022/12/01 07:12:39;;;;;;;55.60;30.40;;;;;;;0.65;92.00;101834.94;1737628;82;21299;-78
2022/12/01 07:15:07;;;;;;;54.43;30.20;;;;;;;0.66;92.06;101833.67;1731327;82;21079;-78
2022/12/01 07:17:35;;;;;;;53.03;30.20;;;;;;;0.66;91.94;101836.67;1731994;82;21027;-76
2022/12/01 07:20:03;;;;;;;50.20;29.43;;;;;;;0.68;92.06;101834.16;1731580;82;21019;-75
2022/12/01 07:22:29;;;;;;;54.17;30.27;;;;;;;0.69;92.09;101837.18;1732382;82;21003;-71
2022/12/01 07:24:56;;;;;;;51.40;29.67;;;;;;;0.70;92.18;101833.36;1736083;82;21155;-77
2022/12/01 07:27:23;;;;;;;54.23;30.53;;;;;;;0.70;92.04;101838.95;1732469;82;22148;-86
2022/12/01 07:29:50;;;;;;;54.33;30.17;;;;;;;0.71;92.11;101836.81;1737139;82;20999;-77
2022/12/01 07:32:17;;;;;;;59.33;32.63;;;;;;;0.73;92.16;101838.60;1734042;82;21038;-76
2022/12/01 07:34:44;;;;;;;60.37;32.60;;;;;;;0.72;91.99;101835.58;1734687;82;21485;-76
2022/12/01 07:37:11;;;;;;;58.20;32.03;;;;;;;0.71;91.95;101833.80;1731653;82;21112;-76
2022/12/01 07:39:38;;;;;;;55.63;30.47;;;;;;;0.73;92.13;101835.16;1734956;82;20962;-77
2022/12/01 07:42:05;;;;;;;58.40;30.67;;;;;;;0.74;92.21;101833.88;1736047;82;21022;-77
2022/12/01 07:44:32;;;;;;;54.10;30.93;;;;;;;0.75;92.15;101834.75;1733732;82;21055;-75
2022/12/01 07:46:59;;;;;;;59.87;32.43;;;;;;;0.76;92.30;101839.97;1736270;81;21279;-76
2022/12/01 07:49:26;;;;;;;53.37;31.23;;;;;;;0.79;92.28;101845.62;1736530;81;21074;-76
2022/12/01 07:52:04;;;;;;;59.47;32.73;;;;;;;0.82;92.44;101841.41;1734265;82;21043;-78
2022/12/01 07:54:31;;;;;;;62.37;32.27;;;;;;;0.83;92.26;101841.89;1733457;81;21073;-78
2022/12/01 07:56:58;;;;;;;58.63;32.30;;;;;;;0.86;92.31;101844.97;1738059;82;21043;-76
2022/12/01 07:59:25;;;;;;;63.10;33.70;;;;;;;0.88;92.35;101844.56;1733214;82;21042;-74
2022/12/01 08:01:53;;;;;;;61.10;32.13;;;;;;;0.88;92.25;101838.98;1733167;81;21212;-77
2022/12/01 08:04:20;;;;;;;63.47;33.63;;;;;;;0.91;92.30;101835.61;1732076;81;21521;-77
2022/12/01 08:06:47;;;;;;;60.37;34.07;;;;;;;0.93;92.32;101837.81;1733571;82;21011;-75
2022/12/01 08:09:14;;;;;;;55.50;31.10;;;;;;;0.94;92.26;101838.27;1734094;82;21559;-76
2022/12/01 08:11:41;;;;;;;58.10;32.50;;;;;;;0.97;92.44;101837.08;1733755;82;21030;-76
2022/12/01 08:14:08;;;;;;;59.47;32.70;;;;;;;1.01;92.52;101838.02;1733640;82;21007;-76
2022/12/01 08:16:35;;;;;;;57.20;32.73;;;;;;;1.07;92.58;101835.59;1733769;81;21023;-79
2022/12/01 08:19:02;;;;;;;59.43;32.97;;;;;;;1.09;92.41;101842.53;1733290;82;21520;-78
2022/12/01 08:21:29;;;;;;;87.00;41.50;;;;;;;1.09;92.29;101838.66;1733907;82;21035;-75
2022/12/01 08:23:57;;;;;;;67.27;34.77;;;;;;;1.08;92.12;101842.09;1734941;81;21031;-76
2022/12/01 08:26:26;;;;;;;56.57;32.10;;;;;;;1.07;92.15;101840.75;1735842;81;21977;-75
2022/12/01 08:28:53;;;;;;;58.70;32.70;;;;;;;1.11;92.36;101843.88;1733106;82;22588;-74
2022/12/01 08:31:27;;;;;;;61.40;33.13;;;;;;;1.13;92.31;101838.31;1733727;82;21090;-75
2022/12/01 08:33:54;;;;;;;61.83;33.50;;;;;;;1.18;92.34;101845.76;1733537;82;21027;-76
2022/12/01 08:36:23;;;;;;;60.53;31.80;;;;;;;1.19;92.23;101844.05;1733021;82;21075;-73
2022/12/01 08:38:53;;;;;;;59.07;33.33;;;;;;;1.20;92.32;101844.09;1735437;81;21898;-74
2022/12/01 08:41:21;;;;;;;57.55;32.93;;;;;;;1.21;92.09;101843.25;1733386;81;21517;-74
2022/12/01 08:43:47;;;;;;;56.70;31.83;;;;;;;1.22;92.24;101842.44;1734764;81;21027;-74
2022/12/01 08:46:14;;;;;;;59.83;32.83;;;;;;;1.25;92.30;101839.92;1735266;82;21474;-76
2022/12/01 08:48:41;;;;;;;57.03;33.00;;;;;;;1.29;92.30;101844.73;1734452;82;20988;-75
2022/12/01 08:51:14;;;;;;;56.67;31.37;;;;;;;1.27;92.09;101845.97;1734505;82;21140;-77
2022/12/01 08:53:45;;;;;;;58.67;32.10;;;;;;;1.28;92.15;101849.45;1733131;82;21011;-76
2022/12/01 08:56:23;;;;;;;58.10;32.30;;;;;;;1.29;92.12;101850.77;1732488;82;21275;-74
2022/12/01 08:58:50;;;;;;;55.07;31.93;;;;;;;1.32;92.29;101852.55;1726537;81;21039;-74
2022/12/01 09:01:19;;;;;;;58.07;33.13;;;;;;;1.35;92.30;101856.50;1725365;82;21068;-73
2022/12/01 09:03:46;;;;;;;58.43;31.70;;;;;;;1.36;92.11;101849.22;1726143;82;22148;-73
2022/12/01 09:06:22;;;;;;;63.47;31.70;;;;;;;1.36;92.16;101850.52;1739687;81;21519;-73
2022/12/01 09:08:49;;;;;;;58.87;32.13;;;;;;;1.40;92.23;101851.45;1721996;82;21011;-75
2022/12/01 09:11:18;;;;;;;58.87;32.70;;;;;;;1.42;92.14;101849.36;1725082;82;21604;-75
2022/12/01 09:13:46;;;;;;;59.03;32.97;;;;;;;1.44;92.12;101847.70;1726249;82;21086;-78
2022/12/01 09:16:16;;;;;;;55.07;31.77;;;;;;;1.44;92.03;101843.82;1728017;82;22148;-78
2022/12/01 09:18:45;;;;;;;56.97;32.83;;;;;;;1.49;92.13;101845.20;1726826;82;21031;-73
2022/12/01 09:21:18;;;;;;;57.93;32.00;;;;;;;1.50;92.05;101845.67;1722890;82;21008;-72
2022/12/01 09:23:46;;;;;;;56.93;31.30;;;;;;;1.48;91.84;101840.45;1724011;82;21027;-74
2022/12/01 09:26:17;;;;;;;59.03;31.97;;;;;;;1.51;91.99;101840.95;1720023;82;21487;-74
2022/12/01 09:28:42;;;;;;;57.95;31.95;;;;;;;1.56;92.11;101837.63;1719296;82;21350;-78
2022/12/01 09:31:12;;;;;;;53.07;31.27;;;;;;;1.61;91.95;101831.28;1723588;82;21517;-72
2022/12/01 09:33:39;;;;;;;55.33;32.20;;;;;;;1.64;91.88;101833.07;1720419;82;21655;-72
2022/12/01 09:36:07;;;;;;;55.13;31.00;;;;;;;1.67;91.77;101829.26;1721578;82;21054;-80
2022/12/01 09:38:37;;;;;;;58.53;33.70;;;;;;;1.70;91.82;101822.44;1721074;82;21075;-81
2022/12/01 09:41:12;;;;;;;58.30;33.27;;;;;;;1.78;92.01;101822.19;1725009;82;21812;-72
2022/12/01 09:43:49;;;;;;;63.40;33.13;;;;;;;1.85;91.84;101820.59;1720581;82;21063;-74
2022/12/01 09:46:21;;;;;;;55.40;31.03;;;;;;;1.93;91.85;101818.17;1718147;82;20927;-74
2022/12/01 09:48:50;;;;;;;54.23;31.20;;;;;;;2.03;91.98;101821.42;1720089;82;20959;-73
2022/12/01 09:51:24;;;;;;;58.00;32.87;;;;;;;2.16;92.11;101813.08;1723951;82;21004;-73
2022/12/01 09:53:55;;;;;;;60.27;33.33;;;;;;;2.26;91.99;101812.81;1731924;82;21104;-72
2022/12/01 09:56:35;;;;;;;109.83;54.50;;;;;;;2.31;91.67;101812.49;1726460;82;20988;-74
2022/12/01 09:59:06;;;;;;;63.47;34.83;;;;;;;2.37;91.63;101810.45;1732849;82;21393;-74
2022/12/01 10:01:40;;;;;;;54.53;31.53;;;;;;;2.43;91.56;101807.53;1734829;82;21062;-72
2022/12/01 10:04:27;;;;;;;65.13;35.23;;;;;;;2.50;91.44;101806.38;1733630;82;21018;-74
2022/12/01 10:07:05;;;;;;;69.30;36.20;;;;;;;2.53;91.40;101796.95;1733891;80;21116;-72
2022/12/01 10:10:07;;;;;;;57.37;31.20;;;;;;;2.57;91.19;101800.03;1734383;82;21541;-72
2022/12/01 10:12:35;;;;;;;51.10;30.87;;;;;;;2.58;90.89;101803.52;1735670;82;21053;-72
2022/12/01 10:15:38;;;;;;;47.00;29.93;;;;;;;2.62;91.04;101800.98;1734782;82;21018;-74
2022/12/01 10:18:36;;;;;;;51.67;30.17;;;;;;;2.67;91.12;101798.50;1732515;80;21031;-74
2022/12/01 10:21:11;;;;;;;53.73;30.70;;;;;;;2.76;91.21;101799.08;1736014;82;21137;-72
2022/12/01 10:24:05;;;;;;;54.37;29.97;;;;;;;2.81;90.98;101798.31;1734325;82;21014;-72
2022/12/01 10:26:52;;;;;;;49.13;29.80;;;;;;;2.81;90.80;101794.85;1736459;82;21114;-72
2022/12/01 10:29:45;;;;;;;54.13;31.70;;;;;;;2.80;90.65;101795.67;1735617;80;21567;-73
2022/12/01 10:32:17;;;;;;;57.83;31.10;;;;;;;2.77;90.62;101790.05;1733633;80;21030;-76
2022/12/01 10:34:46;;;;;;;48.80;28.50;;;;;;;2.75;90.62;101783.97;1725621;80;21133;-72
2022/12/01 10:37:24;;;;;;;52.53;30.60;;;;;;;2.72;90.24;101782.63;1738814;80;21019;-71
2022/12/01 10:39:54;;;;;;;53.00;30.40;;;;;;;2.67;90.18;101780.38;1730231;80;21027;-71
2022/12/01 10:42:39;;;;;;;51.75;29.23;;;;;;;2.67;90.56;101782.96;1710842;82;20939;-71
2022/12/01 10:45:25;;;;;;;49.73;30.23;;;;;;;2.73;90.70;101780.47;1721282;80;21077;-71
2022/12/01 10:48:22;;;;;;;47.47;28.23;;;;;;;2.76;90.57;101771.89;1738856;82;22194;-71
2022/12/01 10:50:55;;;;;;;49.37;29.77;;;;;;;2.77;90.52;101776.20;1732777;80;21019;-71
2022/12/01 10:53:32;;;;;;;45.57;28.30;;;;;;;2.77;90.39;101774.52;1737637;80;22106;-71
2022/12/01 10:56:04;;;;;;;51.77;29.97;;;;;;;2.76;90.30;101775.77;1735137;80;21488;-71
2022/12/01 10:58:35;;;;;;;48.50;29.30;;;;;;;2.78;90.46;101778.84;1730600;82;21026;-71
2022/12/01 11:01:05;;;;;;;47.53;28.93;;;;;;;2.81;90.48;101772.41;1722375;82;21139;-71
2022/12/01 11:03:35;;;;;;;46.63;27.95;;;;;;;2.80;90.28;101769.78;1725753;82;21281;-71
2022/12/01 11:06:06;;;;;;;46.58;28.98;;;;;;;2.77;90.16;101772.33;1716222;82;21554;-71
2022/12/01 11:08:48;;;;;;;;;;;;;;;2.76;90.19;101774.48;1720398;82;21560;-71
2022/12/01 11:11:20;;;;;;;46.50;28.47;;;;;;;2.76;90.16;101770.16;1705673;82;21482;-71
2022/12/01 11:13:48;;;;;;;49.07;29.43;;;;;;;2.76;90.17;101766.71;1728783;81;21085;-71
2022/12/01 11:16:38;;;;;;;43.97;27.80;;;;;;;2.71;90.00;101769.21;1711523;82;20940;-71
2022/12/01 11:19:31;;;;;;;48.08;28.77;;;;;;;2.72;90.09;101772.70;1760095;81;21014;-71
2022/12/01 11:22:04;;;;;;;44.17;27.23;;;;;;;2.69;90.17;101769.63;1741296;81;21030;-71
2022/12/01 11:25:00;;;;;;;45.57;27.43;;;;;;;2.69;90.21;101761.86;1732272;82;21534;-71
2022/12/01 11:27:39;;;;;;;48.07;27.07;;;;;;;2.72;90.34;101765.80;1678352;82;21117;-71
2022/12/01 11:30:11;;;;;;;45.63;27.37;;;;;;;2.74;90.23;101762.78;1720313;82;21051;-71
2022/12/01 11:32:39;;;;;;;44.87;27.47;;;;;;;2.77;90.33;101765.85;1709868;82;21039;-71
2022/12/01 11:35:18;;;;;;;47.23;27.77;;;;;;;2.79;90.22;101764.17;1740247;82;21260;-71
2022/12/01 11:37:55;;;;;;;43.90;27.23;;;;;;;2.76;89.99;101760.23;1755650;81;21106;-71
2022/12/01 11:40:29;;;;;;;46.93;29.23;;;;;;;2.76;90.01;101762.83;1704707;82;21147;-71
2022/12/01 11:43:02;;;;;;;49.10;29.97;;;;;;;2.75;90.04;101760.67;1721062;82;21493;-71
2022/12/01 11:45:38;;;;;;;45.93;27.77;;;;;;;2.70;89.89;101768.77;1729886;83;20991;-71